N6091 CYTZ-KJPX
Flight info
| Callsign | N6091 |
|---|---|
| Flight time | 1h 38m |
| Altitude | 19000 |
| Route | TEVAD2 AHPAH Q140 ARRKK Q812 STOMP J95 DPK |
| Aircraft | B58T/L-SDFGRY/C |
Departure
| Time | 2026-05-08 14:27 |
|---|---|
| Airport | Billy Bishop Toronto City Airport (CYTZ) |
Arrival
| Time | 2026-05-08 16:05 |
|---|---|
| Airport | Town of East Hampton Airport (KJPX) |
| Time | Latitude | Longitude | Altitude | Speed | Heading |
|---|---|---|---|---|---|
| 2026-05-08 14:13 | 43.62957 | -79.40026 | 252 ft | 0 kts | 149° |
| 2026-05-08 14:22 | 43.62955 | -79.40017 | 261 ft | 3 kts | 71° |
| 2026-05-08 14:22 | 43.62986 | -79.39955 | 252 ft | 13 kts | 51° |
| 2026-05-08 14:22 | 43.62973 | -79.39853 | 254 ft | 11 kts | 111° |
| 2026-05-08 14:23 | 43.62984 | -79.39739 | 254 ft | 15 kts | 66° |
| 2026-05-08 14:23 | 43.63023 | -79.39574 | 255 ft | 21 kts | 70° |
| 2026-05-08 14:23 | 43.63072 | -79.39356 | 256 ft | 24 kts | 74° |
| 2026-05-08 14:23 | 43.63097 | -79.39157 | 259 ft | 19 kts | 77° |
| 2026-05-08 14:24 | 43.63123 | -79.39041 | 255 ft | 0 kts | 70° |
| 2026-05-08 14:25 | 43.63131 | -79.39012 | 255 ft | 10 kts | 70° |
| 2026-05-08 14:25 | 43.63080 | -79.38957 | 254 ft | 18 kts | 216° |
| 2026-05-08 14:25 | 43.63043 | -79.39011 | 255 ft | 0 kts | 230° |
| 2026-05-08 14:26 | 43.63042 | -79.39019 | 256 ft | 3 kts | 268° |
| 2026-05-08 14:26 | 43.63037 | -79.39110 | 258 ft | 21 kts | 255° |
| 2026-05-08 14:26 | 43.62916 | -79.39610 | 264 ft | 88 kts | 246° |
| 2026-05-08 14:26 | 43.62702 | -79.40533 | 447 ft | 112 kts | 250° |
| 2026-05-08 14:27 | 43.62432 | -79.41610 | 707 ft | 120 kts | 246° |
| 2026-05-08 14:27 | 43.62041 | -79.42659 | 972 ft | 127 kts | 234° |
| 2026-05-08 14:27 | 43.61414 | -79.43482 | 1283 ft | 130 kts | 200° |
| 2026-05-08 14:27 | 43.60523 | -79.43276 | 1586 ft | 142 kts | 144° |
| 2026-05-08 14:28 | 43.59975 | -79.42113 | 1874 ft | 148 kts | 121° |
| 2026-05-08 14:28 | 43.59305 | -79.41057 | 2149 ft | 147 kts | 141° |
| 2026-05-08 14:28 | 43.58537 | -79.40129 | 2419 ft | 148 kts | 141° |
| 2026-05-08 14:28 | 43.57768 | -79.39208 | 2679 ft | 150 kts | 142° |
| 2026-05-08 14:29 | 43.56973 | -79.38261 | 2948 ft | 151 kts | 142° |
| 2026-05-08 14:29 | 43.56172 | -79.37311 | 3213 ft | 153 kts | 142° |
| 2026-05-08 14:29 | 43.55362 | -79.36351 | 3472 ft | 154 kts | 142° |
| 2026-05-08 14:29 | 43.54546 | -79.35383 | 3729 ft | 156 kts | 142° |
| 2026-05-08 14:30 | 43.53724 | -79.34400 | 3991 ft | 157 kts | 137° |
| 2026-05-08 14:30 | 43.53299 | -79.33039 | 4253 ft | 160 kts | 92° |
| 2026-05-08 14:30 | 43.53286 | -79.31505 | 4523 ft | 161 kts | 90° |
| 2026-05-08 14:30 | 43.53220 | -79.29960 | 4793 ft | 162 kts | 93° |
| 2026-05-08 14:31 | 43.53126 | -79.28426 | 5053 ft | 163 kts | 94° |
| 2026-05-08 14:31 | 43.53023 | -79.26863 | 5314 ft | 164 kts | 94° |
| 2026-05-08 14:31 | 43.52917 | -79.25288 | 5577 ft | 166 kts | 94° |
| 2026-05-08 14:32 | 43.52705 | -79.22106 | 6107 ft | 168 kts | 93° |
| 2026-05-08 14:32 | 43.52597 | -79.20501 | 6373 ft | 169 kts | 93° |
| 2026-05-08 14:32 | 43.52488 | -79.18884 | 6625 ft | 170 kts | 93° |
| 2026-05-08 14:32 | 43.52378 | -79.17261 | 6878 ft | 171 kts | 93° |
| 2026-05-08 14:33 | 43.52269 | -79.15645 | 7127 ft | 172 kts | 93° |
| 2026-05-08 14:33 | 43.52158 | -79.14000 | 7384 ft | 173 kts | 93° |
| 2026-05-08 14:33 | 43.52045 | -79.12344 | 7643 ft | 174 kts | 93° |
| 2026-05-08 14:33 | 43.51932 | -79.10680 | 7906 ft | 175 kts | 93° |
| 2026-05-08 14:34 | 43.51818 | -79.09007 | 8168 ft | 176 kts | 93° |
| 2026-05-08 14:34 | 43.51669 | -79.07331 | 8433 ft | 178 kts | 103° |
| 2026-05-08 14:34 | 43.51308 | -79.05695 | 8706 ft | 179 kts | 106° |
| 2026-05-08 14:34 | 43.50948 | -79.04050 | 8963 ft | 180 kts | 106° |
| 2026-05-08 14:35 | 43.50595 | -79.02410 | 9247 ft | 182 kts | 106° |
| 2026-05-08 14:35 | 43.50235 | -79.00736 | 9522 ft | 183 kts | 106° |
| 2026-05-08 14:35 | 43.49870 | -78.99048 | 9800 ft | 185 kts | 106° |
| 2026-05-08 14:35 | 43.49502 | -78.97349 | 10033 ft | 186 kts | 106° |
| 2026-05-08 14:36 | 43.49132 | -78.95635 | 10283 ft | 187 kts | 106° |
| 2026-05-08 14:36 | 43.48757 | -78.93908 | 10533 ft | 189 kts | 106° |
| 2026-05-08 14:36 | 43.48381 | -78.92171 | 10788 ft | 190 kts | 106° |
| 2026-05-08 14:36 | 43.48002 | -78.90424 | 11040 ft | 191 kts | 105° |
| 2026-05-08 14:37 | 43.47620 | -78.88668 | 11296 ft | 192 kts | 105° |
| 2026-05-08 14:37 | 43.47242 | -78.86927 | 11553 ft | 193 kts | 105° |
| 2026-05-08 14:37 | 43.46856 | -78.85155 | 11812 ft | 194 kts | 105° |
| 2026-05-08 14:37 | 43.46468 | -78.83373 | 12077 ft | 195 kts | 105° |
| 2026-05-08 14:38 | 43.46078 | -78.81581 | 12345 ft | 196 kts | 105° |
| 2026-05-08 14:38 | 43.45685 | -78.79783 | 12613 ft | 197 kts | 105° |
| 2026-05-08 14:38 | 43.45290 | -78.77975 | 12884 ft | 198 kts | 105° |
| 2026-05-08 14:38 | 43.44894 | -78.76161 | 13156 ft | 199 kts | 104° |
| 2026-05-08 14:39 | 43.44495 | -78.74336 | 13431 ft | 199 kts | 104° |
| 2026-05-08 14:39 | 43.44092 | -78.72534 | 13704 ft | 200 kts | 105° |
| 2026-05-08 14:39 | 43.43680 | -78.70698 | 13950 ft | 201 kts | 104° |
| 2026-05-08 14:39 | 43.43269 | -78.68861 | 14198 ft | 201 kts | 104° |
| 2026-05-08 14:40 | 43.42857 | -78.67020 | 14439 ft | 202 kts | 105° |
| 2026-05-08 14:40 | 43.42444 | -78.65174 | 14687 ft | 202 kts | 104° |
| 2026-05-08 14:40 | 43.42030 | -78.63329 | 14929 ft | 202 kts | 104° |
| 2026-05-08 14:40 | 43.41616 | -78.61481 | 15175 ft | 202 kts | 104° |
| 2026-05-08 14:41 | 43.41201 | -78.59631 | 15425 ft | 203 kts | 104° |
| 2026-05-08 14:41 | 43.40783 | -78.57772 | 15674 ft | 205 kts | 104° |
| 2026-05-08 14:41 | 43.40366 | -78.55919 | 15927 ft | 207 kts | 104° |
| 2026-05-08 14:41 | 43.39936 | -78.54008 | 16118 ft | 213 kts | 104° |
| 2026-05-08 14:42 | 43.39490 | -78.52029 | 16260 ft | 220 kts | 104° |
| 2026-05-08 14:42 | 43.39030 | -78.49994 | 16404 ft | 225 kts | 104° |
| 2026-05-08 14:42 | 43.38561 | -78.47916 | 16548 ft | 229 kts | 104° |
| 2026-05-08 14:42 | 43.38084 | -78.45805 | 16690 ft | 233 kts | 104° |
| 2026-05-08 14:43 | 43.37601 | -78.43667 | 16830 ft | 236 kts | 104° |
| 2026-05-08 14:43 | 43.37118 | -78.41536 | 16968 ft | 238 kts | 104° |
| 2026-05-08 14:43 | 43.36622 | -78.39350 | 17112 ft | 240 kts | 104° |
| 2026-05-08 14:43 | 43.36123 | -78.37150 | 17250 ft | 242 kts | 104° |
| 2026-05-08 14:44 | 43.35621 | -78.34937 | 17389 ft | 243 kts | 104° |
| 2026-05-08 14:44 | 43.35114 | -78.32710 | 17526 ft | 245 kts | 104° |
| 2026-05-08 14:44 | 43.34604 | -78.30468 | 17667 ft | 247 kts | 104° |
| 2026-05-08 14:44 | 43.34090 | -78.28212 | 17806 ft | 248 kts | 104° |
| 2026-05-08 14:45 | 43.33572 | -78.25942 | 17943 ft | 249 kts | 104° |
| 2026-05-08 14:45 | 43.33060 | -78.23697 | 18076 ft | 250 kts | 104° |
| 2026-05-08 14:45 | 43.32538 | -78.21412 | 18222 ft | 251 kts | 104° |
| 2026-05-08 14:45 | 43.32013 | -78.19118 | 18341 ft | 252 kts | 104° |
| 2026-05-08 14:46 | 43.31488 | -78.16823 | 18454 ft | 253 kts | 104° |
| 2026-05-08 14:46 | 43.30959 | -78.14517 | 18581 ft | 253 kts | 104° |
| 2026-05-08 14:46 | 43.30365 | -78.12236 | 18696 ft | 255 kts | 117° |
| 2026-05-08 14:46 | 43.29480 | -78.10130 | 18821 ft | 255 kts | 121° |
| 2026-05-08 14:47 | 43.28609 | -78.08037 | 18952 ft | 256 kts | 120° |
| 2026-05-08 14:47 | 43.27724 | -78.05892 | 18977 ft | 260 kts | 120° |
| 2026-05-08 14:47 | 43.26826 | -78.03732 | 18980 ft | 261 kts | 121° |
| 2026-05-08 14:47 | 43.25922 | -78.01564 | 18988 ft | 262 kts | 121° |
| 2026-05-08 14:48 | 43.25018 | -77.99396 | 18982 ft | 261 kts | 121° |
| 2026-05-08 14:48 | 43.24115 | -77.97230 | 18982 ft | 262 kts | 121° |
| 2026-05-08 14:48 | 43.23208 | -77.95058 | 18994 ft | 263 kts | 120° |
| 2026-05-08 14:48 | 43.22296 | -77.92874 | 18989 ft | 264 kts | 120° |
| 2026-05-08 14:49 | 43.21378 | -77.90679 | 18989 ft | 266 kts | 120° |
| 2026-05-08 14:49 | 43.20466 | -77.88498 | 18992 ft | 268 kts | 120° |
| 2026-05-08 14:49 | 43.19536 | -77.86278 | 18992 ft | 269 kts | 120° |
| 2026-05-08 14:49 | 43.18602 | -77.84049 | 18988 ft | 270 kts | 120° |
| 2026-05-08 14:50 | 43.17665 | -77.81814 | 18982 ft | 270 kts | 121° |
| 2026-05-08 14:50 | 43.16726 | -77.79576 | 18973 ft | 271 kts | 121° |
| 2026-05-08 14:50 | 43.15784 | -77.77334 | 18973 ft | 272 kts | 121° |
| 2026-05-08 14:50 | 43.14840 | -77.75087 | 18974 ft | 272 kts | 121° |
| 2026-05-08 14:51 | 43.13895 | -77.72840 | 18971 ft | 273 kts | 121° |
| 2026-05-08 14:51 | 43.12961 | -77.70621 | 18972 ft | 273 kts | 121° |
| 2026-05-08 14:51 | 43.12014 | -77.68373 | 18972 ft | 273 kts | 121° |
| 2026-05-08 14:51 | 43.11064 | -77.66121 | 18978 ft | 273 kts | 121° |
| 2026-05-08 14:52 | 43.10114 | -77.63868 | 18976 ft | 274 kts | 121° |
| 2026-05-08 14:52 | 43.08204 | -77.59348 | 18984 ft | 275 kts | 121° |
| 2026-05-08 14:52 | 43.07248 | -77.57085 | 18988 ft | 275 kts | 121° |
| 2026-05-08 14:53 | 43.06289 | -77.54821 | 18984 ft | 275 kts | 121° |
| 2026-05-08 14:53 | 43.05330 | -77.52557 | 18990 ft | 275 kts | 121° |
| 2026-05-08 14:53 | 43.04383 | -77.50323 | 18985 ft | 275 kts | 121° |
| 2026-05-08 14:53 | 43.03424 | -77.48060 | 18986 ft | 275 kts | 121° |
| 2026-05-08 14:54 | 43.02463 | -77.45797 | 19001 ft | 275 kts | 121° |
| 2026-05-08 14:54 | 43.01501 | -77.43533 | 18993 ft | 275 kts | 121° |
| 2026-05-08 14:54 | 43.00539 | -77.41270 | 18994 ft | 276 kts | 121° |
| 2026-05-08 14:54 | 42.99574 | -77.39005 | 18999 ft | 276 kts | 121° |
| 2026-05-08 14:55 | 42.98608 | -77.36735 | 18997 ft | 277 kts | 121° |
| 2026-05-08 14:55 | 42.97637 | -77.34459 | 18997 ft | 277 kts | 121° |
| 2026-05-08 14:55 | 42.96679 | -77.32213 | 18997 ft | 278 kts | 121° |
| 2026-05-08 14:55 | 42.95707 | -77.29934 | 18997 ft | 278 kts | 121° |
| 2026-05-08 14:56 | 42.94734 | -77.27657 | 18994 ft | 278 kts | 121° |
| 2026-05-08 14:56 | 42.93761 | -77.25379 | 18993 ft | 277 kts | 121° |
| 2026-05-08 14:56 | 42.92789 | -77.23108 | 18994 ft | 277 kts | 121° |
| 2026-05-08 14:56 | 42.91814 | -77.20831 | 18996 ft | 279 kts | 121° |
| 2026-05-08 14:57 | 42.90836 | -77.18550 | 18968 ft | 278 kts | 122° |
| 2026-05-08 14:57 | 42.89861 | -77.16275 | 18981 ft | 278 kts | 122° |
| 2026-05-08 14:57 | 42.88882 | -77.14000 | 18986 ft | 278 kts | 122° |
| 2026-05-08 14:57 | 42.87885 | -77.11745 | 18986 ft | 278 kts | 123° |
| 2026-05-08 14:58 | 42.86900 | -77.09518 | 18987 ft | 278 kts | 123° |
| 2026-05-08 14:58 | 42.85905 | -77.07254 | 18990 ft | 278 kts | 123° |
| 2026-05-08 14:58 | 42.84912 | -77.04994 | 18990 ft | 278 kts | 123° |
| 2026-05-08 14:58 | 42.83916 | -77.02733 | 18987 ft | 278 kts | 123° |
| 2026-05-08 14:59 | 42.82922 | -77.00476 | 18984 ft | 278 kts | 123° |
| 2026-05-08 14:59 | 42.80927 | -76.95958 | 18986 ft | 278 kts | 123° |
| 2026-05-08 14:59 | 42.79942 | -76.93728 | 18984 ft | 278 kts | 123° |
| 2026-05-08 15:00 | 42.78941 | -76.91465 | 18990 ft | 278 kts | 123° |
| 2026-05-08 15:00 | 42.77943 | -76.89210 | 18993 ft | 278 kts | 123° |
| 2026-05-08 15:00 | 42.76942 | -76.86950 | 18983 ft | 278 kts | 123° |
| 2026-05-08 15:00 | 42.75938 | -76.84682 | 18996 ft | 280 kts | 123° |
| 2026-05-08 15:01 | 42.74930 | -76.82411 | 18995 ft | 281 kts | 123° |
| 2026-05-08 15:01 | 42.73918 | -76.80130 | 18999 ft | 281 kts | 123° |
| 2026-05-08 15:01 | 42.72906 | -76.77854 | 18993 ft | 282 kts | 123° |
| 2026-05-08 15:01 | 42.71890 | -76.75567 | 18994 ft | 282 kts | 123° |
| 2026-05-08 15:02 | 42.70874 | -76.73285 | 18993 ft | 282 kts | 123° |
| 2026-05-08 15:02 | 42.69868 | -76.71024 | 18996 ft | 282 kts | 123° |
| 2026-05-08 15:02 | 42.68847 | -76.68732 | 18994 ft | 283 kts | 123° |
| 2026-05-08 15:02 | 42.67828 | -76.66448 | 18995 ft | 283 kts | 123° |
| 2026-05-08 15:03 | 42.66807 | -76.64159 | 18992 ft | 283 kts | 123° |
| 2026-05-08 15:03 | 42.65785 | -76.61871 | 18993 ft | 283 kts | 123° |
| 2026-05-08 15:03 | 42.64762 | -76.59584 | 18993 ft | 283 kts | 123° |
| 2026-05-08 15:03 | 42.63738 | -76.57294 | 18961 ft | 283 kts | 123° |
| 2026-05-08 15:04 | 42.62719 | -76.55017 | 18981 ft | 282 kts | 124° |
| 2026-05-08 15:04 | 42.61701 | -76.52747 | 18980 ft | 281 kts | 124° |
| 2026-05-08 15:04 | 42.60694 | -76.50501 | 18985 ft | 282 kts | 124° |
| 2026-05-08 15:04 | 42.59668 | -76.48215 | 18998 ft | 283 kts | 124° |
| 2026-05-08 15:05 | 42.58634 | -76.45913 | 18996 ft | 284 kts | 124° |
| 2026-05-08 15:05 | 42.57604 | -76.43620 | 18997 ft | 284 kts | 124° |
| 2026-05-08 15:05 | 42.56587 | -76.41360 | 19002 ft | 285 kts | 124° |
| 2026-05-08 15:05 | 42.55553 | -76.39062 | 19002 ft | 284 kts | 124° |
| 2026-05-08 15:06 | 42.54523 | -76.36777 | 18996 ft | 284 kts | 125° |
| 2026-05-08 15:06 | 42.53491 | -76.34488 | 19001 ft | 284 kts | 125° |
| 2026-05-08 15:06 | 42.52459 | -76.32202 | 18994 ft | 284 kts | 125° |
| 2026-05-08 15:06 | 42.51425 | -76.29912 | 18995 ft | 284 kts | 125° |
| 2026-05-08 15:07 | 42.50406 | -76.27656 | 18993 ft | 284 kts | 124° |
| 2026-05-08 15:07 | 42.49371 | -76.25362 | 18992 ft | 285 kts | 124° |
| 2026-05-08 15:07 | 42.48334 | -76.23072 | 18989 ft | 284 kts | 125° |
| 2026-05-08 15:07 | 42.47300 | -76.20788 | 18987 ft | 285 kts | 125° |
| 2026-05-08 15:08 | 42.46262 | -76.18499 | 18984 ft | 284 kts | 125° |
| 2026-05-08 15:08 | 42.45576 | -76.16985 | 18988 ft | 284 kts | 125° |
| 2026-05-08 15:08 | 42.44203 | -76.13956 | 19000 ft | 284 kts | 125° |
| 2026-05-08 15:08 | 42.43161 | -76.11663 | 18963 ft | 285 kts | 126° |
| 2026-05-08 15:09 | 42.42121 | -76.09375 | 18965 ft | 285 kts | 126° |
| 2026-05-08 15:09 | 42.41081 | -76.07087 | 18961 ft | 284 kts | 126° |
| 2026-05-08 15:09 | 42.40394 | -76.05576 | 18961 ft | 284 kts | 126° |
| 2026-05-08 15:09 | 42.39004 | -76.02524 | 18959 ft | 284 kts | 126° |
| 2026-05-08 15:10 | 42.38317 | -76.01017 | 18955 ft | 284 kts | 126° |
| 2026-05-08 15:10 | 42.36940 | -75.98000 | 18954 ft | 284 kts | 126° |
| 2026-05-08 15:10 | 42.36236 | -75.96458 | 18925 ft | 284 kts | 126° |
| 2026-05-08 15:10 | 42.35211 | -75.94211 | 18946 ft | 284 kts | 126° |
| 2026-05-08 15:11 | 42.34169 | -75.91932 | 18951 ft | 285 kts | 126° |
| 2026-05-08 15:11 | 42.33121 | -75.89644 | 18952 ft | 286 kts | 126° |
| 2026-05-08 15:11 | 42.32074 | -75.87355 | 18952 ft | 286 kts | 126° |
| 2026-05-08 15:11 | 42.31026 | -75.85068 | 18953 ft | 286 kts | 126° |
| 2026-05-08 15:12 | 42.29988 | -75.82804 | 18954 ft | 286 kts | 126° |
| 2026-05-08 15:12 | 42.28932 | -75.80503 | 18957 ft | 285 kts | 126° |
| 2026-05-08 15:12 | 42.27886 | -75.78224 | 18976 ft | 286 kts | 126° |
| 2026-05-08 15:12 | 42.26834 | -75.75934 | 18970 ft | 286 kts | 127° |
| 2026-05-08 15:13 | 42.25784 | -75.73649 | 18972 ft | 286 kts | 127° |
| 2026-05-08 15:13 | 42.24733 | -75.71365 | 18972 ft | 287 kts | 127° |
| 2026-05-08 15:13 | 42.23691 | -75.69102 | 18971 ft | 287 kts | 127° |
| 2026-05-08 15:13 | 42.22635 | -75.66809 | 18969 ft | 287 kts | 127° |
| 2026-05-08 15:14 | 42.21582 | -75.64525 | 18971 ft | 286 kts | 127° |
| 2026-05-08 15:14 | 42.20528 | -75.62241 | 18965 ft | 286 kts | 127° |
| 2026-05-08 15:14 | 42.19475 | -75.59963 | 18967 ft | 286 kts | 127° |
| 2026-05-08 15:14 | 42.18423 | -75.57685 | 18972 ft | 286 kts | 127° |
| 2026-05-08 15:15 | 42.17380 | -75.55427 | 18966 ft | 286 kts | 127° |
| 2026-05-08 15:15 | 42.16325 | -75.53147 | 18965 ft | 285 kts | 127° |
| 2026-05-08 15:15 | 42.15270 | -75.50873 | 18966 ft | 286 kts | 127° |
| 2026-05-08 15:15 | 42.14226 | -75.48622 | 18969 ft | 287 kts | 127° |
| 2026-05-08 15:16 | 42.13168 | -75.46339 | 18971 ft | 286 kts | 127° |
| 2026-05-08 15:16 | 42.12110 | -75.44060 | 18967 ft | 286 kts | 127° |
| 2026-05-08 15:16 | 42.11054 | -75.41787 | 18978 ft | 286 kts | 128° |
| 2026-05-08 15:16 | 42.09997 | -75.39513 | 18965 ft | 285 kts | 128° |
| 2026-05-08 15:17 | 42.08944 | -75.37249 | 18969 ft | 285 kts | 128° |
| 2026-05-08 15:17 | 42.07891 | -75.34989 | 18948 ft | 284 kts | 128° |
| 2026-05-08 15:17 | 42.06854 | -75.32769 | 18953 ft | 282 kts | 129° |
| 2026-05-08 15:17 | 42.05593 | -75.30818 | 18954 ft | 271 kts | 151° |
| 2026-05-08 15:18 | 42.04145 | -75.29208 | 18957 ft | 269 kts | 152° |
| 2026-05-08 15:18 | 42.02697 | -75.27582 | 18960 ft | 272 kts | 152° |
| 2026-05-08 15:18 | 42.01248 | -75.25949 | 18958 ft | 272 kts | 152° |
| 2026-05-08 15:18 | 41.99797 | -75.24320 | 18963 ft | 272 kts | 152° |
| 2026-05-08 15:19 | 41.98339 | -75.22689 | 18961 ft | 273 kts | 152° |
| 2026-05-08 15:19 | 41.96880 | -75.21052 | 18962 ft | 272 kts | 152° |
| 2026-05-08 15:19 | 41.95435 | -75.19432 | 18962 ft | 274 kts | 152° |
| 2026-05-08 15:19 | 41.93969 | -75.17797 | 18964 ft | 274 kts | 152° |
| 2026-05-08 15:20 | 41.92500 | -75.16154 | 18964 ft | 274 kts | 152° |
| 2026-05-08 15:20 | 41.91032 | -75.14511 | 18961 ft | 273 kts | 152° |
| 2026-05-08 15:20 | 41.89567 | -75.12873 | 18964 ft | 274 kts | 152° |
| 2026-05-08 15:20 | 41.88122 | -75.11263 | 18960 ft | 273 kts | 152° |
| 2026-05-08 15:21 | 41.86657 | -75.09628 | 18955 ft | 272 kts | 152° |
| 2026-05-08 15:21 | 41.85206 | -75.08007 | 18964 ft | 272 kts | 152° |
| 2026-05-08 15:21 | 41.83746 | -75.06385 | 18962 ft | 272 kts | 152° |
| 2026-05-08 15:21 | 41.82286 | -75.04764 | 18965 ft | 273 kts | 152° |
| 2026-05-08 15:22 | 41.80832 | -75.03138 | 18969 ft | 272 kts | 152° |
| 2026-05-08 15:22 | 41.79370 | -75.01512 | 18966 ft | 272 kts | 153° |
| 2026-05-08 15:22 | 41.77936 | -74.99918 | 18959 ft | 271 kts | 153° |
| 2026-05-08 15:22 | 41.76484 | -74.98306 | 18958 ft | 271 kts | 152° |
| 2026-05-08 15:23 | 41.75030 | -74.96692 | 18958 ft | 270 kts | 153° |
| 2026-05-08 15:23 | 41.73578 | -74.95084 | 18956 ft | 270 kts | 153° |
| 2026-05-08 15:23 | 41.72129 | -74.93476 | 18955 ft | 271 kts | 153° |
| 2026-05-08 15:23 | 41.70679 | -74.91868 | 18955 ft | 271 kts | 153° |
| 2026-05-08 15:24 | 41.69244 | -74.90278 | 18954 ft | 271 kts | 153° |
| 2026-05-08 15:24 | 41.67793 | -74.88673 | 18952 ft | 270 kts | 153° |
| 2026-05-08 15:24 | 41.66340 | -74.87068 | 18954 ft | 270 kts | 153° |
| 2026-05-08 15:24 | 41.64888 | -74.85463 | 18954 ft | 271 kts | 153° |
| 2026-05-08 15:25 | 41.63450 | -74.83873 | 18953 ft | 271 kts | 153° |
| 2026-05-08 15:25 | 41.61997 | -74.82267 | 18953 ft | 270 kts | 153° |
| 2026-05-08 15:25 | 41.60541 | -74.80661 | 18951 ft | 270 kts | 152° |
| 2026-05-08 15:25 | 41.59256 | -74.78764 | 18948 ft | 282 kts | 129° |
| 2026-05-08 15:26 | 41.58263 | -74.76482 | 18952 ft | 284 kts | 125° |
| 2026-05-08 15:26 | 41.57297 | -74.74212 | 18953 ft | 284 kts | 125° |
| 2026-05-08 15:26 | 41.56312 | -74.71920 | 18953 ft | 284 kts | 125° |
| 2026-05-08 15:26 | 41.55322 | -74.69622 | 18956 ft | 285 kts | 125° |
| 2026-05-08 15:27 | 41.54337 | -74.67333 | 18956 ft | 284 kts | 125° |
| 2026-05-08 15:27 | 41.53351 | -74.65040 | 18953 ft | 284 kts | 125° |
| 2026-05-08 15:27 | 41.52367 | -74.62757 | 18957 ft | 284 kts | 125° |
| 2026-05-08 15:27 | 41.51380 | -74.60470 | 18955 ft | 284 kts | 125° |
| 2026-05-08 15:28 | 41.50404 | -74.58209 | 18960 ft | 284 kts | 125° |
| 2026-05-08 15:28 | 41.49421 | -74.55933 | 18961 ft | 283 kts | 125° |
| 2026-05-08 15:28 | 41.48436 | -74.53654 | 18962 ft | 284 kts | 125° |
| 2026-05-08 15:28 | 41.47450 | -74.51369 | 18966 ft | 284 kts | 125° |
| 2026-05-08 15:29 | 41.46459 | -74.49074 | 18961 ft | 284 kts | 125° |
| 2026-05-08 15:29 | 41.45483 | -74.46818 | 18958 ft | 284 kts | 125° |
| 2026-05-08 15:29 | 41.44495 | -74.44537 | 18962 ft | 284 kts | 125° |
| 2026-05-08 15:29 | 41.43505 | -74.42252 | 18961 ft | 284 kts | 125° |
| 2026-05-08 15:30 | 41.42519 | -74.39976 | 18963 ft | 284 kts | 125° |
| 2026-05-08 15:30 | 41.41528 | -74.37693 | 18962 ft | 284 kts | 125° |
| 2026-05-08 15:30 | 41.40516 | -74.35439 | 18956 ft | 281 kts | 133° |
| 2026-05-08 15:30 | 41.39353 | -74.33408 | 18958 ft | 279 kts | 136° |
| 2026-05-08 15:31 | 41.38163 | -74.31358 | 18957 ft | 279 kts | 136° |
| 2026-05-08 15:31 | 41.36982 | -74.29301 | 18958 ft | 279 kts | 136° |
| 2026-05-08 15:31 | 41.35803 | -74.27243 | 18960 ft | 279 kts | 136° |
| 2026-05-08 15:31 | 41.34619 | -74.25185 | 18958 ft | 279 kts | 136° |
| 2026-05-08 15:32 | 41.33437 | -74.23136 | 18957 ft | 279 kts | 136° |
| 2026-05-08 15:32 | 41.32269 | -74.21109 | 18961 ft | 279 kts | 136° |
| 2026-05-08 15:32 | 41.31084 | -74.19054 | 18960 ft | 279 kts | 136° |
| 2026-05-08 15:32 | 41.29905 | -74.17010 | 18956 ft | 277 kts | 136° |
| 2026-05-08 15:33 | 41.28730 | -74.14973 | 18948 ft | 277 kts | 136° |
| 2026-05-08 15:33 | 41.27560 | -74.12949 | 18952 ft | 276 kts | 136° |
| 2026-05-08 15:33 | 41.26391 | -74.10930 | 18952 ft | 276 kts | 136° |
| 2026-05-08 15:33 | 41.25219 | -74.08904 | 18959 ft | 276 kts | 136° |
| 2026-05-08 15:34 | 41.24053 | -74.06887 | 18954 ft | 275 kts | 136° |
| 2026-05-08 15:34 | 41.22883 | -74.04869 | 18949 ft | 275 kts | 136° |
| 2026-05-08 15:34 | 41.21737 | -74.02891 | 18956 ft | 274 kts | 136° |
| 2026-05-08 15:34 | 41.20572 | -74.00885 | 18955 ft | 274 kts | 136° |
| 2026-05-08 15:35 | 41.19406 | -73.98877 | 18956 ft | 274 kts | 136° |
| 2026-05-08 15:35 | 41.18234 | -73.96860 | 18958 ft | 275 kts | 136° |
| 2026-05-08 15:35 | 41.17063 | -73.94845 | 18959 ft | 276 kts | 136° |
| 2026-05-08 15:35 | 41.15890 | -73.92828 | 18959 ft | 276 kts | 136° |
| 2026-05-08 15:36 | 41.14712 | -73.90803 | 18960 ft | 277 kts | 136° |
| 2026-05-08 15:36 | 41.13934 | -73.89468 | 18961 ft | 276 kts | 136° |
| 2026-05-08 15:36 | 41.12378 | -73.86797 | 18962 ft | 276 kts | 136° |
| 2026-05-08 15:36 | 41.11197 | -73.84774 | 18963 ft | 276 kts | 136° |
| 2026-05-08 15:37 | 41.10017 | -73.82751 | 18964 ft | 277 kts | 136° |
| 2026-05-08 15:37 | 41.08839 | -73.80732 | 18963 ft | 277 kts | 136° |
| 2026-05-08 15:37 | 41.07873 | -73.78486 | 18952 ft | 286 kts | 108° |
| 2026-05-08 15:37 | 41.07573 | -73.75930 | 18958 ft | 284 kts | 90° |
| 2026-05-08 15:38 | 41.07518 | -73.73317 | 18961 ft | 283 kts | 87° |
| 2026-05-08 15:38 | 41.07423 | -73.70704 | 18962 ft | 284 kts | 91° |
| 2026-05-08 15:38 | 41.07248 | -73.68088 | 18963 ft | 284 kts | 93° |
| 2026-05-08 15:38 | 41.07076 | -73.65478 | 18964 ft | 284 kts | 92° |
| 2026-05-08 15:39 | 41.06928 | -73.62867 | 18965 ft | 284 kts | 91° |
| 2026-05-08 15:39 | 41.06779 | -73.60261 | 18965 ft | 284 kts | 92° |
| 2026-05-08 15:39 | 41.06624 | -73.57654 | 18965 ft | 284 kts | 92° |
| 2026-05-08 15:39 | 41.06468 | -73.55051 | 18965 ft | 283 kts | 92° |
| 2026-05-08 15:40 | 41.06312 | -73.52443 | 18966 ft | 284 kts | 92° |
| 2026-05-08 15:40 | 41.06158 | -73.49869 | 18968 ft | 284 kts | 92° |
| 2026-05-08 15:40 | 41.06001 | -73.47258 | 18968 ft | 284 kts | 92° |
| 2026-05-08 15:40 | 41.05843 | -73.44643 | 18903 ft | 287 kts | 92° |
| 2026-05-08 15:41 | 41.05682 | -73.42007 | 18658 ft | 286 kts | 92° |
| 2026-05-08 15:41 | 41.05522 | -73.39377 | 18420 ft | 285 kts | 92° |
| 2026-05-08 15:41 | 41.05362 | -73.36759 | 18171 ft | 285 kts | 92° |
| 2026-05-08 15:41 | 41.05204 | -73.34180 | 17902 ft | 284 kts | 92° |
| 2026-05-08 15:42 | 41.05047 | -73.31638 | 17632 ft | 283 kts | 92° |
| 2026-05-08 15:42 | 41.04883 | -73.28981 | 17360 ft | 281 kts | 93° |
| 2026-05-08 15:42 | 41.04724 | -73.26413 | 17092 ft | 279 kts | 93° |
| 2026-05-08 15:42 | 41.04564 | -73.23851 | 16825 ft | 277 kts | 93° |
| 2026-05-08 15:43 | 41.04406 | -73.21321 | 16557 ft | 275 kts | 93° |
| 2026-05-08 15:43 | 41.04248 | -73.18805 | 16294 ft | 273 kts | 93° |
| 2026-05-08 15:43 | 41.04091 | -73.16312 | 16033 ft | 270 kts | 93° |
| 2026-05-08 15:43 | 41.03936 | -73.13841 | 15775 ft | 268 kts | 93° |
| 2026-05-08 15:44 | 41.03780 | -73.11391 | 15519 ft | 266 kts | 93° |
| 2026-05-08 15:44 | 41.03628 | -73.08991 | 15268 ft | 264 kts | 93° |
| 2026-05-08 15:44 | 41.03474 | -73.06581 | 15018 ft | 261 kts | 93° |
| 2026-05-08 15:44 | 41.03322 | -73.04193 | 14768 ft | 259 kts | 93° |
| 2026-05-08 15:45 | 41.03169 | -73.01829 | 14518 ft | 257 kts | 94° |
| 2026-05-08 15:45 | 41.03018 | -72.99481 | 14270 ft | 254 kts | 93° |
| 2026-05-08 15:45 | 41.02868 | -72.97159 | 14027 ft | 252 kts | 94° |
| 2026-05-08 15:45 | 41.02719 | -72.94857 | 13784 ft | 250 kts | 94° |
| 2026-05-08 15:46 | 41.02571 | -72.92577 | 13512 ft | 247 kts | 94° |
| 2026-05-08 15:46 | 41.02424 | -72.90316 | 13231 ft | 246 kts | 94° |
| 2026-05-08 15:46 | 41.02277 | -72.88071 | 12966 ft | 244 kts | 94° |
| 2026-05-08 15:46 | 41.02130 | -72.85837 | 12697 ft | 243 kts | 94° |
| 2026-05-08 15:47 | 41.01984 | -72.83619 | 12430 ft | 241 kts | 94° |
| 2026-05-08 15:47 | 41.01841 | -72.81440 | 12168 ft | 240 kts | 94° |
| 2026-05-08 15:47 | 41.01695 | -72.79247 | 11906 ft | 239 kts | 93° |
| 2026-05-08 15:47 | 41.01551 | -72.77066 | 11652 ft | 237 kts | 93° |
| 2026-05-08 15:48 | 41.01262 | -72.72738 | 11141 ft | 235 kts | 93° |
| 2026-05-08 15:48 | 41.01119 | -72.70595 | 10887 ft | 233 kts | 93° |
| 2026-05-08 15:48 | 41.00963 | -72.68459 | 10636 ft | 232 kts | 94° |
| 2026-05-08 15:49 | 41.00797 | -72.66339 | 10384 ft | 231 kts | 92° |
| 2026-05-08 15:49 | 41.00791 | -72.64226 | 10136 ft | 228 kts | 85° |
| 2026-05-08 15:49 | 41.00842 | -72.62135 | 9886 ft | 227 kts | 85° |
| 2026-05-08 15:49 | 41.00898 | -72.60051 | 9622 ft | 226 kts | 84° |
| 2026-05-08 15:50 | 41.00939 | -72.58009 | 9356 ft | 224 kts | 84° |
| 2026-05-08 15:50 | 41.00961 | -72.55949 | 9089 ft | 223 kts | 85° |
| 2026-05-08 15:50 | 41.00985 | -72.53904 | 8800 ft | 223 kts | 85° |
| 2026-05-08 15:50 | 41.01017 | -72.51854 | 8437 ft | 222 kts | 85° |
| 2026-05-08 15:51 | 41.01055 | -72.49826 | 8058 ft | 219 kts | 85° |
| 2026-05-08 15:51 | 41.01102 | -72.47823 | 7697 ft | 217 kts | 85° |
| 2026-05-08 15:51 | 41.01155 | -72.45833 | 7337 ft | 215 kts | 85° |
| 2026-05-08 15:51 | 41.01218 | -72.43869 | 6984 ft | 213 kts | 85° |
| 2026-05-08 15:52 | 41.01288 | -72.41922 | 6632 ft | 210 kts | 85° |
| 2026-05-08 15:52 | 41.01367 | -72.39998 | 6282 ft | 208 kts | 85° |
| 2026-05-08 15:52 | 41.01453 | -72.38091 | 5911 ft | 207 kts | 85° |
| 2026-05-08 15:52 | 41.01547 | -72.36202 | 5543 ft | 205 kts | 85° |
| 2026-05-08 15:53 | 41.01649 | -72.34357 | 5191 ft | 203 kts | 85° |
| 2026-05-08 15:53 | 41.01761 | -72.32501 | 4832 ft | 201 kts | 85° |
| 2026-05-08 15:53 | 41.01881 | -72.30661 | 4464 ft | 200 kts | 85° |
| 2026-05-08 15:53 | 41.02006 | -72.28835 | 4099 ft | 199 kts | 85° |
| 2026-05-08 15:54 | 41.02135 | -72.27023 | 3734 ft | 197 kts | 84° |
| 2026-05-08 15:54 | 41.02258 | -72.25222 | 3383 ft | 196 kts | 85° |
| 2026-05-08 15:54 | 41.02382 | -72.23429 | 3028 ft | 196 kts | 85° |
| 2026-05-08 15:54 | 41.02512 | -72.21639 | 2665 ft | 196 kts | 84° |
| 2026-05-08 15:55 | 41.02639 | -72.19841 | 2305 ft | 196 kts | 85° |
| 2026-05-08 15:55 | 41.02874 | -72.16409 | 2078 ft | 177 kts | 84° |
| 2026-05-08 15:55 | 41.02982 | -72.14821 | 2075 ft | 170 kts | 84° |
| 2026-05-08 15:56 | 41.03085 | -72.13275 | 2086 ft | 168 kts | 84° |
| 2026-05-08 15:56 | 41.03183 | -72.11747 | 2078 ft | 165 kts | 85° |
| 2026-05-08 15:56 | 41.03284 | -72.10246 | 2082 ft | 163 kts | 84° |
| 2026-05-08 15:56 | 41.03380 | -72.08746 | 2081 ft | 163 kts | 85° |
| 2026-05-08 15:57 | 41.03473 | -72.07253 | 2082 ft | 162 kts | 84° |
| 2026-05-08 15:57 | 41.03569 | -72.05765 | 2080 ft | 162 kts | 84° |
| 2026-05-08 15:57 | 41.03657 | -72.04307 | 2082 ft | 160 kts | 85° |
| 2026-05-08 15:57 | 41.03749 | -72.02838 | 2063 ft | 159 kts | 89° |
| 2026-05-08 15:58 | 41.03360 | -72.01534 | 2063 ft | 153 kts | 142° |
| 2026-05-08 15:58 | 41.02408 | -72.01082 | 2083 ft | 147 kts | 181° |
| 2026-05-08 15:58 | 41.01364 | -72.01000 | 2087 ft | 153 kts | 182° |
| 2026-05-08 15:58 | 41.00296 | -72.00912 | 2076 ft | 153 kts | 182° |
| 2026-05-08 15:59 | 40.99242 | -72.00826 | 2077 ft | 150 kts | 182° |
| 2026-05-08 15:59 | 40.98209 | -72.00747 | 2077 ft | 147 kts | 183° |
| 2026-05-08 15:59 | 40.97285 | -72.01109 | 2066 ft | 136 kts | 223° |
| 2026-05-08 15:59 | 40.96873 | -72.02161 | 2072 ft | 131 kts | 264° |
| 2026-05-08 16:00 | 40.96804 | -72.03360 | 2073 ft | 131 kts | 265° |
| 2026-05-08 16:00 | 40.96727 | -72.04540 | 2076 ft | 131 kts | 265° |
| 2026-05-08 16:00 | 40.96645 | -72.05736 | 2078 ft | 130 kts | 266° |
| 2026-05-08 16:00 | 40.96562 | -72.06932 | 2079 ft | 131 kts | 265° |
| 2026-05-08 16:01 | 40.96477 | -72.08135 | 2082 ft | 131 kts | 265° |
| 2026-05-08 16:01 | 40.96391 | -72.09336 | 2088 ft | 131 kts | 266° |
| 2026-05-08 16:01 | 40.96305 | -72.10540 | 2089 ft | 131 kts | 265° |
| 2026-05-08 16:01 | 40.96218 | -72.11744 | 2084 ft | 132 kts | 265° |
| 2026-05-08 16:02 | 40.96131 | -72.12951 | 2083 ft | 131 kts | 265° |
| 2026-05-08 16:02 | 40.96050 | -72.14176 | 1909 ft | 133 kts | 269° |
| 2026-05-08 16:02 | 40.96042 | -72.15359 | 1708 ft | 124 kts | 269° |
| 2026-05-08 16:02 | 40.96028 | -72.16435 | 1498 ft | 112 kts | 269° |
| 2026-05-08 16:03 | 40.96010 | -72.17399 | 1329 ft | 99 kts | 269° |
| 2026-05-08 16:03 | 40.95997 | -72.18294 | 1167 ft | 95 kts | 269° |
| 2026-05-08 16:03 | 40.95984 | -72.19158 | 1012 ft | 93 kts | 266° |
| 2026-05-08 16:03 | 40.95972 | -72.20003 | 857 ft | 91 kts | 267° |
| 2026-05-08 16:04 | 40.95960 | -72.20822 | 705 ft | 88 kts | 265° |
| 2026-05-08 16:04 | 40.95949 | -72.21630 | 568 ft | 89 kts | 266° |
| 2026-05-08 16:04 | 40.95934 | -72.22473 | 438 ft | 94 kts | 266° |
| 2026-05-08 16:04 | 40.95921 | -72.23339 | 357 ft | 95 kts | 264° |
| 2026-05-08 16:05 | 40.95921 | -72.24218 | 136 ft | 97 kts | 262° |
| 2026-05-08 16:05 | 40.95906 | -72.24998 | 39 ft | 68 kts | 263° |
| 2026-05-08 16:05 | 40.95897 | -72.25386 | 45 ft | 23 kts | 273° |
| 2026-05-08 16:05 | 40.95904 | -72.25563 | 46 ft | 12 kts | 313° |
| 2026-05-08 16:06 | 40.95972 | -72.25573 | 48 ft | 9 kts | 46° |
| 2026-05-08 16:06 | 40.95981 | -72.25491 | 48 ft | 9 kts | 88° |
| 2026-05-08 16:06 | 40.95981 | -72.25396 | 47 ft | 11 kts | 92° |
| 2026-05-08 16:06 | 40.95987 | -72.25281 | 44 ft | 14 kts | 69° |
| 2026-05-08 16:07 | 40.96069 | -72.25200 | 41 ft | 16 kts | 28° |
| 2026-05-08 16:07 | 40.96167 | -72.25129 | 42 ft | 16 kts | 26° |
| 2026-05-08 16:07 | 40.96197 | -72.25059 | 41 ft | 10 kts | 145° |
| 2026-05-08 16:07 | 40.96161 | -72.24997 | 41 ft | 7 kts | 140° |
| 2026-05-08 16:08 | 40.96153 | -72.24990 | 41 ft | 0 kts | 145° |